Marseilles, IL

5:51 PM CDT on August 30, 2014 (GMT -0500)
Pontiac Municipal | Change Station
CLOSE
Current Station
Airport
Location: Pontiac,
Elevation: 659 ft
Nearby Weather Stations

Elev 659 ft 40.92 °N, 88.62 °W | Updated 16 minutes ago

Scattered Clouds
Scattered Clouds
81 °F
Feels Like 85 °F
N
10
Wind Variable Wind from SW

Today
High -- | Low -- °F
--% Chance of Precip.
Yesterday
High -- | Low -- °F
Precip. -- in
6:19 AM 7:30 PM
Waxing Crescent, 25% visible
Pressure 29.87 in
Visibility 10.0 miles
Clouds Scattered Clouds 3300 ft
Scattered Clouds 8500 ft
Heat Index 85 °F
Dew Point 72 °F
Humidity 74%
Rainfall 0.03 in
Snow Depth Not available.
UV 1 out of 12
Pollen 4.70 out of 12
Air Quality Not available.
Flu Activity Not available.
METAR KPNT 302235Z AUTO 23009KT 10SM SCT033 SCT085 27/22 A2987 RMK AO2 LTG DSNT SE AND S

More Conditions Fewer Conditions

Pressure 29.87 in
Visibility 10.0 miles
Clouds Scattered Clouds 3300 ft
Scattered Clouds 8500 ft
Heat Index 85 °F
Dew Point 72 °F
Humidity 74%
Rainfall 0.03 in
Snow Depth Not available.
UV 1 out of 12
Pollen 4.70 out of 12
Air Quality Not available.
Flu Activity Not available.
METAR KPNT 302235Z AUTO 23009KT 10SM SCT033 SCT085 27/22 A2987 RMK AO2 LTG DSNT SE AND S

More Conditions Fewer Conditions

10-Day Weather Forecast

Almanac

Astronomy

Aug. 30, 2014 Rise Set
Actual Time 6:19 AM CDT 7:30 PM CDT
Civil Twilight 5:50 AM CDT 7:59 PM CDT
Nautical Twilight 5:16 AM CDT 8:33 PM CDT
Astronomical Twilight 4:40 AM CDT 9:09 PM CDT
Moon 11:10 AM CDT 10:01 PM CDT
Length of Visible Light 14h 08m
Length of Day
13h 11m
Tomorrow will be 2m 37s shorter.
Waxing Crescent, 25% of the Moon is Illuminated
Today
Waxing Crescent
Sep 2
First Quarter
Sep 8
Full
Sep 15
Last Quarter
Sep 24
New

Today's Extremes

State Highs State Lows

Community

WunderPhotos

Upload Photos

1,748,663 photos uploaded!

WunderBlogs® & News

Nearby

Snow Depth

Station Depth Elevation
No new snow has been reported.

Earthquake Activity

City Distance Mag. Time & Date
No recent earthquake activity has been reported nearby.
Minimum magnitude displayed is 2.5.

Coastal Water Temperatures

Place Temperature
No Stations Reporting

Nearby Weather Stations